Machens, Missouri
Current Conditions -  °F | °C
As of 8:54 PM on Friday 21 Nov 2014 (Local Time) from KSET Reporting Station
Overcast Overcast  
Wind Chill: 34°   Ceiling: 2700
Heat Index: 41°   Visibility: 10mi
Dew Point: 26°   Wind: 12mph
Humidity: 55%   Direction: 140°SE
Pressure: 30.24"   Gusts: NA
Location:  38.9266°N, 90.3904°W
Report Text: KSET 220254Z AUTO 14010KT 10SM OVC027 05/M03 A3024 RMK AO2 SLP242 T00501033 56016
Loading
Personal Weather Stations






























Interactive Weather Map New forecast layout! Learn more

10-Day Weather Forecast

Advertisements
Track Severe Weather on mobile